createdAt,value
2018-07-14T00:01:56.792Z,99.90
2018-07-14T00:04:26.191Z,99.90
2018-07-14T00:06:55.437Z,99.90
2018-07-14T00:09:25.084Z,99.90
2018-07-14T00:11:54.347Z,99.90
2018-07-14T00:14:23.746Z,99.90
2018-07-14T00:16:52.682Z,99.90
2018-07-14T00:19:21.798Z,99.90
2018-07-14T00:21:51.455Z,99.90
2018-07-14T00:24:21.105Z,99.90
2018-07-14T00:26:50.887Z,99.90
2018-07-14T00:29:20.415Z,99.90
2018-07-14T00:31:49.921Z,99.90
2018-07-14T00:34:19.396Z,99.90
2018-07-14T00:36:49.227Z,99.90
2018-07-14T00:39:18.820Z,99.90
2018-07-14T00:41:48.015Z,99.90
2018-07-14T00:44:17.222Z,99.90
2018-07-14T00:46:46.843Z,99.90
2018-07-14T00:49:16.469Z,99.90
2018-07-14T00:51:46.001Z,99.90
2018-07-14T00:54:15.222Z,99.90
2018-07-14T00:56:45.187Z,99.90
2018-07-14T00:59:14.977Z,99.90
2018-07-14T01:01:44.171Z,99.90
2018-07-14T01:06:42.561Z,99.90
2018-07-14T01:09:11.719Z,99.90
2018-07-14T01:11:41.395Z,99.90
2018-07-14T01:14:10.682Z,99.90
2018-07-14T01:16:40.505Z,99.90
2018-07-14T01:19:09.968Z,99.90
2018-07-14T01:21:39.639Z,99.90
2018-07-14T01:24:08.805Z,99.90
2018-07-14T01:26:40.126Z,99.90
2018-07-14T01:29:09.936Z,99.90
2018-07-14T01:31:39.811Z,99.90
2018-07-14T01:34:09.440Z,99.90
2018-07-14T01:36:39.055Z,99.90
2018-07-14T01:39:09.068Z,99.90
2018-07-14T01:41:38.584Z,99.90
2018-07-14T01:44:08.027Z,99.90
2018-07-14T01:46:38.099Z,99.90
2018-07-14T01:49:07.958Z,99.90
2018-07-14T01:51:38.302Z,99.90
2018-07-14T01:54:07.847Z,99.90
2018-07-14T01:56:37.296Z,99.90
2018-07-14T02:01:34.849Z,99.90
2018-07-14T02:04:04.337Z,99.90
2018-07-14T02:06:34.116Z,99.90
2018-07-14T02:09:04.581Z,99.90
2018-07-14T02:11:34.128Z,99.90
2018-07-14T02:14:03.638Z,99.90
2018-07-14T02:16:33.171Z,99.90
2018-07-14T02:19:02.687Z,99.90
2018-07-14T02:21:31.916Z,99.90
2018-07-14T02:24:01.494Z,99.90
2018-07-14T02:26:31.317Z,99.90
2018-07-14T02:29:01.146Z,99.90
2018-07-14T02:31:29.995Z,99.90
2018-07-14T02:33:59.121Z,99.90
2018-07-14T02:36:28.706Z,99.90
2018-07-14T02:38:58.165Z,99.90
2018-07-14T02:41:27.730Z,99.90
2018-07-14T02:43:57.198Z,99.90
2018-07-14T02:46:27.086Z,99.90
2018-07-14T02:48:56.518Z,99.90
2018-07-14T02:51:25.728Z,99.90
2018-07-14T02:53:55.748Z,99.90
2018-07-14T02:56:24.810Z,99.90
2018-07-14T02:58:54.682Z,99.90
2018-07-14T03:01:23.826Z,99.90
2018-07-14T03:03:52.759Z,99.90
2018-07-14T03:06:22.314Z,99.90
2018-07-14T03:08:51.947Z,99.90
2018-07-14T03:11:21.146Z,99.90
2018-07-14T03:13:50.625Z,99.90
2018-07-14T03:16:20.471Z,99.90
2018-07-14T03:18:50.320Z,99.90
2018-07-14T03:21:19.802Z,99.90
2018-07-14T03:23:49.569Z,99.90
2018-07-14T03:26:19.083Z,99.90
2018-07-14T03:28:49.833Z,99.90
2018-07-14T03:31:19.363Z,99.90
2018-07-14T03:33:48.517Z,99.90
2018-07-14T03:36:18.389Z,99.90
2018-07-14T03:38:47.891Z,99.90
2018-07-14T03:41:17.671Z,99.90
2018-07-14T03:43:48.059Z,99.90
2018-07-14T03:46:17.578Z,99.90
2018-07-14T03:48:47.490Z,99.90
2018-07-14T03:51:17.008Z,99.90
2018-07-14T03:53:46.357Z,99.90
2018-07-14T03:56:15.797Z,99.90
2018-07-14T03:58:45.153Z,99.90
2018-07-14T04:01:14.678Z,99.90
2018-07-14T04:03:44.247Z,99.90
2018-07-14T04:06:14.053Z,99.90
2018-07-14T04:08:44.072Z,99.90
2018-07-14T04:11:13.926Z,99.90
2018-07-14T04:13:43.398Z,99.90
2018-07-14T04:16:12.552Z,99.90
2018-07-14T04:18:42.349Z,99.90
2018-07-14T04:21:11.572Z,99.90
2018-07-14T04:23:41.398Z,99.90
2018-07-14T04:26:10.591Z,99.90
2018-07-14T04:28:40.067Z,99.90
2018-07-14T04:31:09.809Z,99.90
2018-07-14T04:33:39.630Z,99.90
2018-07-14T04:36:09.471Z,99.90
2018-07-14T04:41:08.396Z,99.90
2018-07-14T04:43:37.929Z,99.90
2018-07-14T04:46:08.150Z,99.90
2018-07-14T04:48:37.973Z,99.90
2018-07-14T04:51:07.162Z,99.90
2018-07-14T04:53:36.316Z,99.90
2018-07-14T04:56:05.446Z,99.90
2018-07-14T04:58:34.959Z,99.90
2018-07-14T05:01:04.455Z,99.90
2018-07-14T05:03:34.003Z,99.90
2018-07-14T05:06:03.174Z,99.90
2018-07-14T05:08:32.672Z,99.90
2018-07-14T05:11:02.169Z,99.90
2018-07-14T05:13:31.980Z,99.90
2018-07-14T05:16:01.860Z,99.90
2018-07-14T05:18:31.684Z,99.90
2018-07-14T05:21:01.182Z,99.90
2018-07-14T05:23:31.056Z,99.90
2018-07-14T05:26:00.867Z,99.90
2018-07-14T05:28:30.055Z,99.90
2018-07-14T05:30:59.671Z,99.90
2018-07-14T05:33:29.234Z,99.90
2018-07-14T05:35:59.231Z,99.90
2018-07-14T05:38:28.670Z,99.90
2018-07-14T05:40:57.541Z,99.90
2018-07-14T05:43:27.394Z,99.90
2018-07-14T05:45:56.898Z,99.90
2018-07-14T05:48:26.322Z,99.90
2018-07-14T05:50:55.574Z,99.90
2018-07-14T05:53:25.463Z,99.90
2018-07-14T05:55:54.947Z,99.90
2018-07-14T05:58:24.511Z,99.90
2018-07-14T06:00:53.667Z,99.90
2018-07-14T06:03:23.530Z,99.90
2018-07-14T06:05:53.404Z,99.90
2018-07-14T06:08:22.957Z,99.90
2018-07-14T06:10:52.118Z,99.90
2018-07-14T06:13:21.480Z,99.90
2018-07-14T06:15:50.320Z,99.90
2018-07-14T06:18:19.803Z,99.90
2018-07-14T06:20:49.631Z,99.90
2018-07-14T06:23:18.878Z,99.90
2018-07-14T06:25:48.083Z,99.90
2018-07-14T06:28:17.887Z,99.90
2018-07-14T06:30:47.674Z,99.90
2018-07-14T06:33:17.653Z,99.90
2018-07-14T06:35:46.805Z,99.90
2018-07-14T06:38:16.592Z,99.90
2018-07-14T06:40:46.378Z,99.90
2018-07-14T06:43:15.862Z,99.90
2018-07-14T06:45:45.232Z,99.90
2018-07-14T06:48:16.990Z,99.90
2018-07-14T06:50:46.839Z,99.90
2018-07-14T06:53:16.538Z,99.90
2018-07-14T06:55:46.051Z,99.90
2018-07-14T06:58:16.414Z,99.90
2018-07-14T07:00:45.813Z,99.90
2018-07-14T07:03:15.699Z,99.90
2018-07-14T07:05:45.835Z,99.90
2018-07-14T07:08:15.035Z,99.90
2018-07-14T07:10:44.505Z,99.90
2018-07-14T07:13:14.351Z,99.90
2018-07-14T07:15:44.191Z,99.90
2018-07-14T07:18:13.417Z,99.90
2018-07-14T07:20:43.122Z,99.90
2018-07-14T07:23:12.729Z,99.90
2018-07-14T07:25:42.206Z,99.90
2018-07-14T07:28:11.750Z,99.90
2018-07-14T07:33:10.743Z,99.90
2018-07-14T07:35:39.968Z,99.90
2018-07-14T07:38:09.543Z,99.90
2018-07-14T07:40:39.053Z,99.90
2018-07-14T07:43:08.169Z,99.90
2018-07-14T07:45:37.797Z,99.90
2018-07-14T07:48:06.918Z,99.90
2018-07-14T07:50:36.032Z,99.90
2018-07-14T07:53:05.740Z,99.90
2018-07-14T07:55:35.630Z,99.90
2018-07-14T07:58:04.429Z,99.90
2018-07-14T08:00:33.943Z,99.90
2018-07-14T08:03:03.151Z,99.90
2018-07-14T08:05:32.346Z,99.90
2018-07-14T08:08:01.941Z,99.90
2018-07-14T08:10:31.848Z,99.90
2018-07-14T08:13:01.416Z,99.90
2018-07-14T08:15:31.238Z,99.90
2018-07-14T08:18:00.715Z,99.90
2018-07-14T08:20:30.500Z,99.90
2018-07-14T08:22:59.718Z,99.90
2018-07-14T08:25:29.018Z,99.90
2018-07-14T08:27:59.895Z,99.90
2018-07-14T08:30:28.788Z,99.90
2018-07-14T08:32:58.359Z,99.90
2018-07-14T08:37:57.120Z,99.90
2018-07-14T08:40:26.866Z,99.90
2018-07-14T08:42:56.694Z,99.90
2018-07-14T08:45:26.220Z,99.90
2018-07-14T08:47:56.267Z,99.90
2018-07-14T08:50:26.149Z,99.90
2018-07-14T08:52:55.445Z,99.90
2018-07-14T08:55:25.097Z,99.90
2018-07-14T08:57:54.727Z,99.90
2018-07-14T09:00:24.342Z,99.90
2018-07-14T09:02:54.334Z,99.90
2018-07-14T09:05:24.228Z,99.90
2018-07-14T09:07:54.154Z,99.90
2018-07-14T09:10:24.068Z,99.00
2018-07-14T09:12:53.382Z,99.90
2018-07-14T09:15:22.915Z,99.80
2018-07-14T09:17:52.030Z,99.90
2018-07-14T09:20:21.479Z,99.30
2018-07-14T09:22:51.672Z,97.90
2018-07-14T09:25:21.479Z,96.40
2018-07-14T09:27:50.932Z,95.30
2018-07-14T09:30:20.473Z,94.00
2018-07-14T09:32:50.504Z,94.60
2018-07-14T09:35:20.036Z,94.70
2018-07-14T09:37:49.860Z,94.10
2018-07-14T09:42:49.192Z,91.80
2018-07-14T09:45:19.186Z,91.20
2018-07-14T09:47:48.605Z,90.60
2018-07-14T09:52:47.020Z,88.50
2018-07-14T09:55:16.603Z,89.10
2018-07-14T09:57:46.559Z,89.10
2018-07-14T10:00:21.636Z,87.10
2018-07-14T10:05:20.249Z,86.40
2018-07-14T10:07:49.705Z,83.30
2018-07-14T10:10:18.713Z,81.60
2018-07-14T10:12:48.779Z,83.10
2018-07-14T10:15:17.937Z,80.90
2018-07-14T10:20:17.101Z,81.80
2018-07-14T10:22:46.919Z,83.00
2018-07-14T10:25:17.060Z,82.30
2018-07-14T10:27:46.510Z,82.20
2018-07-14T10:30:15.809Z,79.20
2018-07-14T10:32:45.625Z,76.30
2018-07-14T10:35:15.610Z,74.10
2018-07-14T10:37:44.845Z,74.80
2018-07-14T10:40:14.358Z,77.50
2018-07-14T10:42:44.222Z,77.60
2018-07-14T10:45:13.399Z,78.90
2018-07-14T10:47:42.493Z,76.10
2018-07-14T10:50:12.230Z,76.60
2018-07-14T10:52:42.090Z,74.90
2018-07-14T10:55:11.633Z,77.50
2018-07-14T10:57:41.171Z,76.40
2018-07-14T11:00:10.418Z,75.80
2018-07-14T11:02:39.939Z,77.10
2018-07-14T11:05:09.725Z,75.40
2018-07-14T11:07:39.624Z,73.90
2018-07-14T11:10:09.486Z,72.20
2018-07-14T11:12:39.344Z,71.60
2018-07-14T11:15:08.963Z,70.10
2018-07-14T11:17:39.057Z,69.20
2018-07-14T11:22:37.353Z,69.70
2018-07-14T11:25:06.518Z,68.10
2018-07-14T11:27:35.990Z,65.10
2018-07-14T11:30:05.244Z,64.00
2018-07-14T11:32:34.609Z,63.20
2018-07-14T11:35:03.730Z,62.20
2018-07-14T11:37:33.275Z,62.70
2018-07-14T11:40:02.967Z,65.10
2018-07-14T11:42:32.180Z,63.50
2018-07-14T11:45:01.719Z,62.80
2018-07-14T11:47:31.205Z,61.10
2018-07-14T11:50:01.194Z,61.80
2018-07-14T11:52:30.374Z,61.90
2018-07-14T11:54:59.889Z,60.50
2018-07-14T11:57:29.402Z,58.90
2018-07-14T11:59:58.951Z,58.20
2018-07-14T12:02:28.756Z,58.90
2018-07-14T12:04:58.249Z,57.30
2018-07-14T12:07:27.677Z,58.20
2018-07-14T12:09:57.510Z,58.50
2018-07-14T12:12:27.054Z,57.10
2018-07-14T12:17:25.830Z,58.40
2018-07-14T12:19:55.260Z,58.40
2018-07-14T12:24:53.707Z,54.90
2018-07-14T12:27:23.253Z,55.00
2018-07-14T12:29:52.830Z,52.90
2018-07-14T12:32:23.042Z,52.90
2018-07-14T12:34:52.217Z,52.20
2018-07-14T12:37:22.061Z,51.50
2018-07-14T12:39:52.804Z,51.40
2018-07-14T12:42:22.422Z,50.80
2018-07-14T12:44:52.117Z,50.20
2018-07-14T12:47:21.354Z,51.40
2018-07-14T12:49:51.139Z,50.80
2018-07-14T12:52:20.829Z,49.80
2018-07-14T12:54:50.288Z,49.80
2018-07-14T12:57:19.481Z,48.50
2018-07-14T12:59:48.662Z,48.30
2018-07-14T13:02:17.849Z,47.40
2018-07-14T13:04:47.440Z,48.30
2018-07-14T13:07:16.967Z,48.80
2018-07-14T13:09:46.816Z,48.40
2018-07-14T13:12:16.512Z,47.80
2018-07-14T13:14:46.367Z,47.30
2018-07-14T13:17:16.027Z,47.50
2018-07-14T13:19:45.134Z,46.80
2018-07-14T13:22:15.343Z,47.20
2018-07-14T13:24:44.998Z,46.30
2018-07-14T13:27:14.654Z,46.40
2018-07-14T13:29:44.125Z,47.80
2018-07-14T13:32:13.420Z,46.60
2018-07-14T13:34:43.185Z,47.70
2018-07-14T13:37:12.346Z,48.80
2018-07-14T13:39:41.947Z,48.10
2018-07-14T13:42:11.766Z,48.00
2018-07-14T13:44:41.103Z,47.10
2018-07-14T13:47:10.283Z,47.60
2018-07-14T13:49:39.406Z,47.50
2018-07-14T13:52:08.946Z,46.40
2018-07-14T13:54:38.466Z,46.00
2018-07-14T13:57:07.974Z,47.00
2018-07-14T13:59:37.443Z,47.40
2018-07-14T14:02:06.777Z,47.30
2018-07-14T14:04:36.771Z,48.20
2018-07-14T14:07:05.978Z,47.10
2018-07-14T14:12:04.160Z,47.30
2018-07-14T14:14:33.616Z,46.90
2018-07-14T14:17:03.394Z,47.20
2018-07-14T14:22:01.423Z,49.90
2018-07-14T14:24:30.932Z,51.80
2018-07-14T14:27:00.498Z,53.50
2018-07-14T14:29:29.798Z,55.60
2018-07-14T14:31:58.975Z,58.10
2018-07-14T14:34:28.433Z,58.40
2018-07-14T14:36:57.908Z,58.60
2018-07-14T14:39:27.350Z,60.20
2018-07-14T14:41:56.864Z,60.70
2018-07-14T14:44:25.944Z,60.90
2018-07-14T14:46:55.447Z,60.90
2018-07-14T14:49:25.005Z,62.00
2018-07-14T14:51:54.462Z,63.20
2018-07-14T14:54:24.317Z,63.30
2018-07-14T14:56:54.239Z,64.10
2018-07-14T14:59:24.415Z,63.40
2018-07-14T15:01:53.846Z,63.50
2018-07-14T15:04:23.779Z,63.70
2018-07-14T15:06:53.329Z,64.40
2018-07-14T15:09:23.129Z,64.80
2018-07-14T15:11:52.672Z,64.80
2018-07-14T15:14:23.223Z,64.70
2018-07-14T15:16:52.777Z,65.30
2018-07-14T15:19:22.566Z,65.20
2018-07-14T15:24:21.356Z,67.20
2018-07-14T15:26:51.026Z,66.20
2018-07-14T15:29:20.561Z,65.60
2018-07-14T15:31:50.018Z,66.10
2018-07-14T15:34:19.585Z,66.60
2018-07-14T15:36:49.460Z,66.40
2018-07-14T15:39:19.362Z,67.50
2018-07-14T15:41:49.334Z,67.60
2018-07-14T15:44:18.834Z,69.00
2018-07-14T15:46:48.897Z,68.40
2018-07-14T15:49:18.397Z,67.50
2018-07-14T15:51:47.756Z,69.60
2018-07-14T15:54:17.343Z,68.60
2018-07-14T15:56:46.850Z,68.90
2018-07-14T15:59:16.644Z,68.30
2018-07-14T16:01:46.403Z,69.20
2018-07-14T16:04:15.836Z,69.90
2018-07-14T16:06:45.309Z,70.70
2018-07-14T16:09:15.179Z,69.70
2018-07-14T16:11:45.023Z,70.40
2018-07-14T16:14:14.859Z,69.90
2018-07-14T16:16:44.290Z,71.20
2018-07-14T16:19:14.135Z,70.70
2018-07-14T16:21:43.349Z,71.10
2018-07-14T16:24:13.210Z,71.10
2018-07-14T16:26:42.415Z,71.80
2018-07-14T16:29:11.919Z,71.00
2018-07-14T16:31:41.373Z,71.20
2018-07-14T16:34:10.826Z,70.30
2018-07-14T16:36:40.337Z,71.00
2018-07-14T16:39:11.117Z,71.20
2018-07-14T16:41:40.973Z,71.00
2018-07-14T16:44:10.507Z,71.10
2018-07-14T16:46:39.670Z,73.40
2018-07-14T16:49:09.197Z,72.90
2018-07-14T16:51:38.326Z,73.70
2018-07-14T16:54:07.501Z,72.10
2018-07-14T16:56:36.771Z,73.70
2018-07-14T16:59:05.934Z,73.80
2018-07-14T17:01:35.355Z,73.50
2018-07-14T17:04:04.870Z,74.80
2018-07-14T17:06:34.326Z,73.70
2018-07-14T17:09:04.527Z,73.70
2018-07-14T17:11:34.047Z,75.80
2018-07-14T17:14:03.625Z,76.00
2018-07-14T17:16:32.922Z,74.70
2018-07-14T17:19:02.402Z,75.20
2018-07-14T17:21:31.772Z,76.60
2018-07-14T17:24:00.925Z,76.60
2018-07-14T17:26:30.404Z,76.00
2018-07-14T17:28:59.953Z,76.90
2018-07-14T17:31:29.890Z,78.20
2018-07-14T17:33:59.281Z,78.20
2018-07-14T17:36:29.119Z,76.70
2018-07-14T17:38:58.647Z,78.20
2018-07-14T17:41:28.137Z,79.40
2018-07-14T17:43:57.667Z,78.60
2018-07-14T17:46:27.588Z,77.70
2018-07-14T17:48:57.388Z,78.80
2018-07-14T17:51:26.602Z,78.40
2018-07-14T17:53:56.566Z,78.80
2018-07-14T17:56:25.431Z,80.80
2018-07-14T17:58:54.956Z,80.60
2018-07-14T18:01:24.386Z,80.10
2018-07-14T18:03:53.876Z,80.10
2018-07-14T18:06:23.699Z,80.00
2018-07-14T18:08:52.964Z,80.80
2018-07-14T18:11:22.758Z,82.00
2018-07-14T18:13:53.000Z,82.90
2018-07-14T18:16:23.122Z,82.00
2018-07-14T18:18:52.736Z,82.10
2018-07-14T18:21:22.530Z,82.70
2018-07-14T18:23:52.299Z,82.30
2018-07-14T18:26:21.746Z,83.70
2018-07-14T18:28:51.636Z,83.80
2018-07-14T18:31:21.444Z,85.30
2018-07-14T18:33:51.295Z,83.90
2018-07-14T18:36:20.891Z,86.20
2018-07-14T18:38:50.448Z,88.40
2018-07-14T18:41:19.936Z,88.20
2018-07-14T18:43:49.806Z,88.50
2018-07-14T18:46:19.510Z,89.00
2018-07-14T18:48:49.237Z,90.10
2018-07-14T18:51:18.685Z,90.00
2018-07-14T18:53:48.137Z,90.30
2018-07-14T18:56:17.946Z,89.90
2018-07-14T18:58:47.438Z,90.90
2018-07-14T19:01:17.091Z,91.00
2018-07-14T19:03:46.551Z,92.10
2018-07-14T19:06:16.045Z,92.10
2018-07-14T19:08:45.328Z,92.80
2018-07-14T19:11:14.642Z,93.00
2018-07-14T19:13:44.186Z,92.70
2018-07-14T19:16:13.978Z,91.90
2018-07-14T19:18:43.778Z,93.30
2018-07-14T19:21:13.366Z,94.00
2018-07-14T19:23:42.852Z,94.70
2018-07-14T19:26:12.824Z,95.10
2018-07-14T19:28:42.872Z,95.80
2018-07-14T19:31:12.368Z,97.50
2018-07-14T19:33:41.226Z,98.20
2018-07-14T19:36:10.675Z,98.80
2018-07-14T19:38:40.539Z,99.90
2018-07-14T19:41:10.322Z,99.90
2018-07-14T19:43:40.163Z,99.90
2018-07-14T19:46:09.977Z,99.90
2018-07-14T19:48:41.346Z,99.90
2018-07-14T19:51:11.430Z,99.90
2018-07-14T19:53:41.431Z,99.90
2018-07-14T19:56:10.965Z,99.90
2018-07-14T19:58:40.934Z,99.90
2018-07-14T20:01:10.430Z,99.90
2018-07-14T20:03:40.192Z,99.90
2018-07-14T20:06:10.055Z,99.90
2018-07-14T20:08:39.970Z,99.90
2018-07-14T20:11:09.150Z,99.90
2018-07-14T20:13:38.366Z,99.90
2018-07-14T20:16:09.253Z,99.90
2018-07-14T20:18:39.526Z,99.90
2018-07-14T20:21:09.012Z,99.90
2018-07-14T20:23:38.201Z,99.90
2018-07-14T20:26:07.636Z,99.90
2018-07-14T20:28:37.133Z,99.90
2018-07-14T20:31:06.644Z,99.90
2018-07-14T20:33:36.426Z,99.90
2018-07-14T20:36:05.897Z,99.90
2018-07-14T20:38:35.389Z,99.90
2018-07-14T20:41:04.918Z,99.90
2018-07-14T20:43:34.422Z,99.90
2018-07-14T20:46:03.597Z,99.90
2018-07-14T20:48:33.133Z,99.90
2018-07-14T20:51:02.991Z,99.90
2018-07-14T20:53:32.513Z,99.90
2018-07-14T20:56:01.717Z,99.90
2018-07-14T20:58:30.974Z,99.90
2018-07-14T21:03:29.631Z,99.90
2018-07-14T21:05:59.098Z,99.90
2018-07-14T21:08:28.955Z,99.90
2018-07-14T21:10:58.543Z,99.90
2018-07-14T21:13:27.394Z,99.90
2018-07-14T21:15:56.837Z,99.90
2018-07-14T21:18:26.934Z,99.90
2018-07-14T21:20:56.509Z,99.90
2018-07-14T21:23:26.511Z,99.90
2018-07-14T21:25:55.950Z,99.90
2018-07-14T21:28:25.655Z,99.90
2018-07-14T21:30:54.802Z,99.90
2018-07-14T21:33:25.337Z,99.90
2018-07-14T21:35:54.795Z,99.90
2018-07-14T21:38:24.667Z,99.90
2018-07-14T21:40:54.436Z,99.90
2018-07-14T21:43:24.010Z,99.90
2018-07-14T21:45:53.348Z,99.90
2018-07-14T21:48:22.850Z,99.90
2018-07-14T21:50:52.409Z,99.90
2018-07-14T21:53:22.374Z,99.90
2018-07-14T21:55:52.000Z,99.90
2018-07-14T21:58:22.241Z,99.90
2018-07-14T22:00:58.855Z,99.90
2018-07-14T22:03:28.223Z,99.90
2018-07-14T22:05:57.838Z,99.90
2018-07-14T22:08:27.063Z,99.90
2018-07-14T22:10:56.328Z,99.90
2018-07-14T22:13:25.280Z,99.90
2018-07-14T22:15:54.749Z,99.90
2018-07-14T22:18:24.595Z,99.90
2018-07-14T22:20:54.065Z,99.90
2018-07-14T22:23:24.008Z,99.90
2018-07-14T22:25:53.963Z,99.90
2018-07-14T22:28:23.682Z,99.90
2018-07-14T22:30:52.898Z,99.90
2018-07-14T22:33:22.783Z,99.90
2018-07-14T22:35:52.532Z,99.90
2018-07-14T22:38:21.712Z,99.90
2018-07-14T22:40:50.815Z,99.90
2018-07-14T22:43:20.739Z,99.90
2018-07-14T22:45:49.805Z,99.90
2018-07-14T22:48:19.643Z,99.90
2018-07-14T22:50:49.170Z,99.90
2018-07-14T22:53:18.966Z,99.90
2018-07-14T22:55:48.752Z,99.90
2018-07-14T22:58:18.300Z,99.90
2018-07-14T23:00:47.862Z,99.90
2018-07-14T23:03:16.858Z,99.90
2018-07-14T23:05:46.336Z,99.90
2018-07-14T23:08:15.794Z,99.90
2018-07-14T23:10:45.292Z,99.90
2018-07-14T23:13:14.762Z,99.90
2018-07-14T23:15:43.935Z,99.90
2018-07-14T23:18:13.106Z,99.90
2018-07-14T23:20:43.069Z,99.90
2018-07-14T23:23:12.284Z,99.90
2018-07-14T23:25:42.117Z,99.90
2018-07-14T23:28:11.579Z,99.90
2018-07-14T23:30:41.033Z,99.90
2018-07-14T23:33:09.917Z,99.90
2018-07-14T23:35:39.744Z,99.90
2018-07-14T23:38:09.340Z,99.90
2018-07-14T23:40:39.082Z,99.90
2018-07-14T23:43:08.956Z,99.90
2018-07-14T23:45:38.042Z,99.90
2018-07-14T23:48:07.627Z,99.90
2018-07-14T23:50:36.874Z,99.90
2018-07-14T23:53:06.084Z,99.90
2018-07-14T23:55:35.271Z,99.90
2018-07-14T23:58:04.429Z,99.90
